Time,TemperatureF,DewpointF,PressureIn,WindDirection,WindDirectionDegrees,WindSpeedMPH,WindSpeedGustMPH,Humidity,HourlyPrecipIn,Conditions,Clouds,dailyrainin,SoftwareType,DateUTC
2013-10-26 00:08:00,44.2,40.0,30.33,NE,43,2.0,4.0,84,0.00,,,0.00,weatherlink.com 1.10,2013-10-26 04:08:00,
2013-10-26 00:23:00,44.3,40.0,30.33,NE,43,0.0,2.0,84,0.00,,,0.00,weatherlink.com 1.10,2013-10-26 04:23:00,
2013-10-26 00:38:00,43.4,39.0,30.33,NE,44,0.0,3.0,84,0.00,,,0.00,weatherlink.com 1.10,2013-10-26 04:38:00,
2013-10-26 00:53:00,43.3,39.0,30.32,NE,43,2.0,2.0,85,0.00,,,0.00,weatherlink.com 1.10,2013-10-26 04:53:00,
2013-10-26 01:08:00,45.2,41.0,30.32,NE,43,0.0,2.0,84,0.00,,,0.00,weatherlink.com 1.10,2013-10-26 05:08:00,
2013-10-26 01:23:00,45.9,41.0,30.32,NE,43,0.0,0.0,84,0.00,,,0.00,weatherlink.com 1.10,2013-10-26 05:23:00,
2013-10-26 01:38:00,44.8,40.0,30.31,NE,43,0.0,0.0,84,0.00,,,0.00,weatherlink.com 1.10,2013-10-26 05:38:00,
2013-10-26 01:53:00,45.4,41.0,30.30,NE,43,0.0,1.0,85,0.00,,,0.00,weatherlink.com 1.10,2013-10-26 05:53:00,
2013-10-26 02:08:00,44.3,40.0,30.30,NE,43,0.0,1.0,85,0.00,,,0.00,weatherlink.com 1.10,2013-10-26 06:08:00,
2013-10-26 02:23:00,42.9,39.0,30.30,NE,42,2.0,3.0,86,0.00,,,0.00,weatherlink.com 1.10,2013-10-26 06:23:00,
2013-10-26 02:38:00,42.8,39.0,30.29,NE,37,2.0,3.0,87,0.00,,,0.00,weatherlink.com 1.10,2013-10-26 06:38:00,
2013-10-26 02:53:00,42.7,39.0,30.29,NE,36,2.0,4.0,87,0.00,,,0.00,weatherlink.com 1.10,2013-10-26 06:53:00,
2013-10-26 03:08:00,42.5,39.0,30.29,NE,36,1.0,3.0,87,0.00,,,0.00,weatherlink.com 1.10,2013-10-26 07:08:00,
2013-10-26 03:23:00,42.3,39.0,30.28,NE,36,1.0,2.0,87,0.00,,,0.00,weatherlink.com 1.10,2013-10-26 07:23:00,
2013-10-26 03:38:00,42.0,38.0,30.28,NE,36,2.0,3.0,87,0.00,,,0.00,weatherlink.com 1.10,2013-10-26 07:38:00,
2013-10-26 03:53:00,43.6,40.0,30.28,NE,36,0.0,3.0,87,0.00,,,0.00,weatherlink.com 1.10,2013-10-26 07:53:00,
2013-10-26 04:08:00,43.9,40.0,30.28,NE,36,0.0,2.0,87,0.00,,,0.00,weatherlink.com 1.10,2013-10-26 08:08:00,
2013-10-26 04:23:00,44.0,40.0,30.27,NE,36,2.0,2.0,87,0.00,,,0.00,weatherlink.com 1.10,2013-10-26 08:23:00,
2013-10-26 04:38:00,44.2,41.0,30.27,NE,36,1.0,3.0,87,0.00,,,0.00,weatherlink.com 1.10,2013-10-26 08:38:00,
2013-10-26 04:53:00,44.2,41.0,30.26,NE,36,2.0,2.0,87,0.00,,,0.00,weatherlink.com 1.10,2013-10-26 08:53:00,
2013-10-26 05:08:00,44.2,41.0,30.26,NE,36,2.0,3.0,87,0.00,,,0.00,weatherlink.com 1.10,2013-10-26 09:08:00,
2013-10-26 05:23:00,43.9,40.0,30.26,NE,36,2.0,4.0,86,0.00,,,0.00,weatherlink.com 1.10,2013-10-26 09:23:00,
2013-10-26 05:38:00,44.1,40.0,30.27,NE,34,2.0,4.0,85,0.00,,,0.00,weatherlink.com 1.10,2013-10-26 09:38:00,
2013-10-26 05:53:00,44.1,40.0,30.27,NNE,30,2.0,3.0,84,0.00,,,0.00,weatherlink.com 1.10,2013-10-26 09:53:00,
2013-10-26 06:09:00,44.0,39.0,30.27,NNE,30,2.0,3.0,83,0.00,,,0.00,weatherlink.com 1.10,2013-10-26 10:09:00,
2013-10-26 06:24:00,43.8,39.0,30.27,NNE,30,3.0,3.0,83,0.00,,,0.00,weatherlink.com 1.10,2013-10-26 10:24:00,
2013-10-26 06:39:00,43.6,38.0,30.28,North,11,3.0,4.0,80,0.00,,,0.00,weatherlink.com 1.10,2013-10-26 10:39:00,
2013-10-26 06:54:00,43.6,38.0,30.28,North,11,2.0,4.0,81,0.00,,,0.00,weatherlink.com 1.10,2013-10-26 10:54:00,
2013-10-26 07:09:00,42.8,38.0,30.29,NNE,12,1.0,4.0,82,0.00,,,0.00,weatherlink.com 1.10,2013-10-26 11:09:00,
2013-10-26 07:24:00,42.6,38.0,30.28,North,5,2.0,4.0,83,0.00,,,0.00,weatherlink.com 1.10,2013-10-26 11:24:00,
2013-10-26 07:39:00,42.5,38.0,30.28,North,5,2.0,4.0,83,0.00,,,0.00,weatherlink.com 1.10,2013-10-26 11:39:00,
2013-10-26 07:54:00,42.6,37.0,30.28,North,5,3.0,4.0,81,0.00,,,0.00,weatherlink.com 1.10,2013-10-26 11:54:00,
2013-10-26 08:09:00,43.0,38.0,30.29,North,360,4.0,4.0,81,0.00,,,0.00,weatherlink.com 1.10,2013-10-26 12:09:00,
2013-10-26 08:24:00,43.4,38.0,30.29,NNE,17,3.0,4.0,80,0.00,,,0.00,weatherlink.com 1.10,2013-10-26 12:24:00,
2013-10-26 08:39:00,44.2,38.0,30.29,NNE,13,4.0,5.0,80,0.00,,,0.00,weatherlink.com 1.10,2013-10-26 12:39:00,
2013-10-26 08:54:00,45.1,39.0,30.30,North,9,3.0,4.0,79,0.00,,,0.00,weatherlink.com 1.10,2013-10-26 12:54:00,
2013-10-26 09:09:00,46.5,40.0,30.30,North,9,0.0,5.0,78,0.00,,,0.00,weatherlink.com 1.10,2013-10-26 13:09:00,
2013-10-26 09:24:00,47.2,40.0,30.30,North,5,1.0,5.0,75,0.00,,,0.00,weatherlink.com 1.10,2013-10-26 13:24:00,
2013-10-26 09:39:00,48.7,40.0,30.30,North,355,2.0,5.0,72,0.00,,,0.00,weatherlink.com 1.10,2013-10-26 13:39:00,
2013-10-26 09:54:00,49.8,41.0,30.30,North,349,2.0,5.0,71,0.00,,,0.00,weatherlink.com 1.10,2013-10-26 13:54:00,
2013-10-26 10:09:00,51.3,40.0,30.30,NNW,348,2.0,5.0,66,0.00,,,0.00,weatherlink.com 1.10,2013-10-26 14:09:00,
2013-10-26 10:24:00,51.7,41.0,30.29,North,355,2.0,10.0,68,0.00,,,0.00,weatherlink.com 1.10,2013-10-26 14:24:00,
2013-10-26 10:39:00,52.8,41.0,30.29,North,355,3.0,7.0,64,0.00,,,0.00,weatherlink.com 1.10,2013-10-26 14:39:00,
2013-10-26 10:54:00,53.5,40.0,30.28,NNE,15,2.0,9.0,60,0.00,,,0.00,weatherlink.com 1.10,2013-10-26 14:54:00,
2013-10-26 11:09:00,54.3,40.0,30.27,North,5,1.0,9.0,59,0.00,,,0.00,weatherlink.com 1.10,2013-10-26 15:09:00,
2013-10-26 11:24:00,55.0,40.0,30.27,North,11,7.0,7.0,57,0.00,,,0.00,weatherlink.com 1.10,2013-10-26 15:24:00,
2013-10-26 11:39:00,55.9,42.0,30.27,NNE,13,1.0,5.0,59,0.00,,,0.00,weatherlink.com 1.10,2013-10-26 15:39:00,
2013-10-26 11:54:00,57.0,42.0,30.27,North,360,2.0,8.0,58,0.00,,,0.00,weatherlink.com 1.10,2013-10-26 15:54:00,
2013-10-26 12:09:00,57.5,41.0,30.26,North,360,4.0,5.0,54,0.00,,,0.00,weatherlink.com 1.10,2013-10-26 16:09:00,
2013-10-26 12:24:00,58.1,41.0,30.26,NNE,12,7.0,9.0,54,0.00,,,0.00,weatherlink.com 1.10,2013-10-26 16:24:00,
2013-10-26 12:39:00,58.5,44.0,30.25,NNE,15,1.0,10.0,59,0.00,,,0.00,weatherlink.com 1.10,2013-10-26 16:39:00,
2013-10-26 12:54:00,59.7,43.0,30.24,NNW,340,1.0,4.0,54,0.00,,,0.00,weatherlink.com 1.10,2013-10-26 16:54:00,
2013-10-26 13:09:00,59.0,43.0,30.23,North,9,0.0,6.0,56,0.00,,,0.00,weatherlink.com 1.10,2013-10-26 17:09:00,
2013-10-26 13:24:00,60.6,45.0,30.23,NNW,334,0.0,4.0,57,0.00,,,0.00,weatherlink.com 1.10,2013-10-26 17:24:00,
2013-10-26 13:39:00,61.7,44.0,30.21,NNW,334,0.0,3.0,52,0.00,,,0.00,weatherlink.com 1.10,2013-10-26 17:39:00,
2013-10-26 13:54:00,62.2,46.0,30.20,NW,326,2.0,4.0,55,0.00,,,0.00,weatherlink.com 1.10,2013-10-26 17:54:00,
2013-10-26 14:10:00,62.0,45.0,30.19,West,267,2.0,6.0,55,0.00,,,0.00,weatherlink.com 1.10,2013-10-26 18:10:00,
2013-10-26 14:25:00,61.8,44.0,30.18,WNW,293,0.0,5.0,52,0.00,,,0.00,weatherlink.com 1.10,2013-10-26 18:25:00,
2013-10-26 14:40:00,61.2,47.0,30.17,WNW,289,0.0,4.0,59,0.00,,,0.00,weatherlink.com 1.10,2013-10-26 18:40:00,
2013-10-26 14:55:00,61.3,47.0,30.17,WNW,282,1.0,6.0,59,0.00,,,0.00,weatherlink.com 1.10,2013-10-26 18:55:00,
2013-10-26 15:10:00,61.7,47.0,30.16,SW,225,3.0,4.0,58,0.00,,,0.00,weatherlink.com 1.10,2013-10-26 19:10:00,
2013-10-26 15:25:00,62.6,49.0,30.16,West,263,3.0,6.0,61,0.00,,,0.00,weatherlink.com 1.10,2013-10-26 19:25:00,
2013-10-26 15:40:00,63.9,47.0,30.16,WSW,258,2.0,6.0,55,0.00,,,0.00,weatherlink.com 1.10,2013-10-26 19:40:00,
2013-10-26 15:55:00,64.3,48.0,30.15,SW,222,3.0,7.0,56,0.00,,,0.00,weatherlink.com 1.10,2013-10-26 19:55:00,
2013-10-26 16:10:00,64.7,48.0,30.15,West,271,2.0,4.0,55,0.00,,,0.00,weatherlink.com 1.10,2013-10-26 20:10:00,
2013-10-26 16:25:00,64.5,47.0,30.14,West,259,0.0,6.0,54,0.00,,,0.00,weatherlink.com 1.10,2013-10-26 20:25:00,
2013-10-26 16:40:00,62.9,47.0,30.13,SSW,207,0.0,5.0,56,0.00,,,0.00,weatherlink.com 1.10,2013-10-26 20:40:00,
2013-10-26 16:55:00,61.5,47.0,30.13,SSW,204,2.0,4.0,59,0.00,,,0.00,weatherlink.com 1.10,2013-10-26 20:55:00,
2013-10-26 17:11:00,60.4,47.0,30.12,West,275,0.0,5.0,61,0.00,,,0.00,weatherlink.com 1.10,2013-10-26 21:11:00,
2013-10-26 17:26:00,59.7,46.0,30.12,West,277,0.0,5.0,62,0.00,,,0.00,weatherlink.com 1.10,2013-10-26 21:26:00,
2013-10-26 17:41:00,58.7,46.0,30.12,West,277,0.0,4.0,64,0.00,,,0.00,weatherlink.com 1.10,2013-10-26 21:41:00,
2013-10-26 17:56:00,57.8,46.0,30.11,West,277,0.0,1.0,66,0.00,,,0.00,weatherlink.com 1.10,2013-10-26 21:56:00,
2013-10-26 18:10:00,56.6,46.0,30.11,West,277,0.0,0.0,69,0.00,,,0.00,weatherlink.com 1.10,2013-10-26 22:10:00,
2013-10-26 18:25:00,55.1,47.0,30.11,West,277,0.0,1.0,73,0.00,,,0.00,weatherlink.com 1.10,2013-10-26 22:25:00,
2013-10-26 18:40:00,54.0,46.0,30.10,West,277,0.0,0.0,75,0.00,,,0.00,weatherlink.com 1.10,2013-10-26 22:40:00,
2013-10-26 18:55:00,53.2,46.0,30.11,West,277,0.0,0.0,76,0.00,,,0.00,weatherlink.com 1.10,2013-10-26 22:55:00,
2013-10-26 19:10:00,52.7,47.0,30.11,West,277,0.0,1.0,80,0.00,,,0.00,weatherlink.com 1.10,2013-10-26 23:10:00,
2013-10-26 19:25:00,52.2,47.0,30.11,West,277,0.0,0.0,82,0.00,,,0.00,weatherlink.com 1.10,2013-10-26 23:25:00,
2013-10-26 19:40:00,51.6,47.0,30.11,West,277,0.0,0.0,83,0.00,,,0.00,weatherlink.com 1.10,2013-10-26 23:40:00,
2013-10-26 19:55:00,50.9,46.0,30.11,West,277,0.0,1.0,84,0.00,,,0.00,weatherlink.com 1.10,2013-10-26 23:55:00,
2013-10-26 20:10:00,50.5,46.0,30.11,West,277,0.0,0.0,85,0.00,,,0.00,weatherlink.com 1.10,2013-10-27 00:10:00,
2013-10-26 20:25:00,49.7,45.0,30.12,West,277,0.0,1.0,85,0.00,,,0.00,weatherlink.com 1.10,2013-10-27 00:25:00,
2013-10-26 20:40:00,48.9,45.0,30.12,West,277,0.0,3.0,85,0.00,,,0.00,weatherlink.com 1.10,2013-10-27 00:40:00,
2013-10-26 20:55:00,48.5,44.0,30.12,West,277,0.0,2.0,84,0.00,,,0.00,weatherlink.com 1.10,2013-10-27 00:55:00,
2013-10-26 21:10:00,48.2,44.0,30.12,West,277,0.0,1.0,84,0.00,,,0.00,weatherlink.com 1.10,2013-10-27 01:10:00,
2013-10-26 21:25:00,48.1,44.0,30.12,West,277,0.0,0.0,84,0.00,,,0.00,weatherlink.com 1.10,2013-10-27 01:25:00,
2013-10-26 21:40:00,47.8,43.0,30.12,West,277,0.0,0.0,83,0.00,,,0.00,weatherlink.com 1.10,2013-10-27 01:40:00,
2013-10-26 21:55:00,47.4,43.0,30.12,West,277,0.0,0.0,84,0.00,,,0.00,weatherlink.com 1.10,2013-10-27 01:55:00,
2013-10-26 22:10:00,47.1,43.0,30.12,West,277,0.0,1.0,84,0.00,,,0.00,weatherlink.com 1.10,2013-10-27 02:10:00,
2013-10-26 22:25:00,46.8,43.0,30.12,West,277,0.0,2.0,85,0.00,,,0.00,weatherlink.com 1.10,2013-10-27 02:25:00,
2013-10-26 22:40:00,46.6,42.0,30.12,West,277,0.0,0.0,84,0.00,,,0.00,weatherlink.com 1.10,2013-10-27 02:40:00,
2013-10-26 22:55:00,46.7,42.0,30.11,West,277,0.0,1.0,84,0.00,,,0.00,weatherlink.com 1.10,2013-10-27 02:55:00,
2013-10-26 23:10:00,46.8,42.0,30.11,West,277,0.0,0.0,84,0.00,,,0.00,weatherlink.com 1.10,2013-10-27 03:10:00,
2013-10-26 23:25:00,46.9,43.0,30.11,West,277,0.0,0.0,85,0.00,,,0.00,weatherlink.com 1.10,2013-10-27 03:25:00,
2013-10-26 23:40:00,46.8,43.0,30.11,West,277,0.0,0.0,85,0.00,,,0.00,weatherlink.com 1.10,2013-10-27 03:40:00,
2013-10-26 23:55:00,46.8,43.0,30.10,West,277,0.0,1.0,85,0.00,,,0.00,weatherlink.com 1.10,2013-10-27 03:55:00,